createdAt,value
2023-06-13T00:02:13.383Z,98833.22
2023-06-13T00:05:09.193Z,98837.52
2023-06-13T00:08:03.614Z,98837.94
2023-06-13T00:10:57.508Z,98833.45
2023-06-13T00:13:51.815Z,98834.98
2023-06-13T00:16:48.269Z,98830.80
2023-06-13T00:19:43.735Z,98827.80
2023-06-13T00:22:38.090Z,98829.66
2023-06-13T00:25:32.220Z,98828.52
2023-06-13T00:28:26.681Z,98820.65
2023-06-13T00:31:21.008Z,98817.29
2023-06-13T00:34:15.288Z,98820.11
2023-06-13T00:37:14.334Z,98814.14
2023-06-13T00:40:10.367Z,98809.43
2023-06-13T00:43:05.197Z,98809.55
2023-06-13T00:46:05.202Z,98810.38
2023-06-13T00:48:59.814Z,98803.08
2023-06-13T00:51:54.109Z,98799.13
2023-06-13T00:54:47.855Z,98795.34
2023-06-13T00:57:42.488Z,98792.67
2023-06-13T01:00:37.469Z,98797.39
2023-06-13T01:03:34.406Z,98793.95
2023-06-13T01:06:29.832Z,98788.42
2023-06-13T01:09:24.248Z,98792.93
2023-06-13T01:12:28.740Z,98792.92
2023-06-13T01:15:26.680Z,98788.89
2023-06-13T01:18:24.184Z,98786.99
2023-06-13T01:21:18.903Z,98786.19
2023-06-13T01:24:25.116Z,98787.98
2023-06-13T01:27:20.919Z,98788.01
2023-06-13T01:30:16.360Z,98785.88
2023-06-13T01:33:12.086Z,98786.68
2023-06-13T01:36:06.552Z,98784.83
2023-06-13T01:39:00.639Z,98783.07
2023-06-13T01:41:54.677Z,98782.73
2023-06-13T01:44:48.715Z,98782.95
2023-06-13T01:47:49.142Z,98782.77
2023-06-13T01:50:50.568Z,98778.21
2023-06-13T01:53:52.776Z,98773.14
2023-06-13T01:56:50.628Z,98774.23
2023-06-13T01:59:47.508Z,98773.88
2023-06-13T02:02:43.772Z,98770.45
2023-06-13T02:05:38.253Z,98769.64
2023-06-13T02:08:33.572Z,98764.66
2023-06-13T02:11:28.005Z,98767.71
2023-06-13T02:14:22.502Z,98768.23
2023-06-13T02:17:17.229Z,98765.41
2023-06-13T02:20:15.376Z,98761.23
2023-06-13T02:23:19.979Z,98764.86
2023-06-13T02:26:14.606Z,98759.20
2023-06-13T02:29:09.327Z,98757.23
2023-06-13T02:32:03.432Z,98757.77
2023-06-13T02:34:57.440Z,98760.29
2023-06-13T02:37:51.862Z,98761.23
2023-06-13T02:40:46.092Z,98759.59
2023-06-13T02:43:40.430Z,98762.00
2023-06-13T02:46:34.228Z,98763.73
2023-06-13T02:49:28.303Z,98761.86
2023-06-13T02:52:23.012Z,98758.23
2023-06-13T02:55:19.124Z,98755.45
2023-06-13T02:58:13.199Z,98758.17
2023-06-13T03:01:07.827Z,98752.45
2023-06-13T03:04:02.178Z,98752.36
2023-06-13T03:06:56.162Z,98752.98
2023-06-13T03:09:50.304Z,98749.08
2023-06-13T03:12:45.087Z,98747.93
2023-06-13T03:15:39.343Z,98751.11
2023-06-13T03:18:33.523Z,98751.98
2023-06-13T03:21:27.503Z,98750.85
2023-06-13T03:24:22.469Z,98750.45
2023-06-13T03:27:16.722Z,98746.91
2023-06-13T03:30:14.301Z,98747.48
2023-06-13T03:33:08.738Z,98747.52
2023-06-13T03:36:03.604Z,98747.23
2023-06-13T03:38:57.685Z,98744.82
2023-06-13T03:41:51.747Z,98743.66
2023-06-13T03:44:48.315Z,98742.32
2023-06-13T03:47:43.270Z,98741.58
2023-06-13T03:50:24.444Z,98741.09
2023-06-13T03:53:19.192Z,98742.08
2023-06-13T03:56:13.389Z,98743.23
2023-06-13T03:59:07.372Z,98739.04
2023-06-13T04:02:01.255Z,98736.32
2023-06-13T04:04:57.590Z,98738.85
2023-06-13T04:07:56.035Z,98740.88
2023-06-13T04:10:50.108Z,98744.19
2023-06-13T04:13:43.814Z,98749.66
2023-06-13T04:16:37.944Z,98749.83
2023-06-13T04:19:32.911Z,98747.30
2023-06-13T04:22:27.002Z,98743.19
2023-06-13T04:25:21.088Z,98748.27
2023-06-13T04:28:15.437Z,98742.19
2023-06-13T04:31:09.694Z,98742.33
2023-06-13T04:34:04.938Z,98744.36
2023-06-13T04:36:59.134Z,98742.14
2023-06-13T04:39:53.682Z,98741.73
2023-06-13T04:42:52.517Z,98738.21
2023-06-13T04:45:47.772Z,98738.25
2023-06-13T04:48:43.407Z,98738.65
2023-06-13T04:51:37.717Z,98735.99
2023-06-13T04:54:32.324Z,98736.02
2023-06-13T04:57:26.462Z,98738.04
2023-06-13T05:00:23.385Z,98737.38
2023-06-13T05:03:18.694Z,98733.75
2023-06-13T05:05:57.968Z,98731.84
2023-06-13T05:08:53.647Z,98730.37
2023-06-13T05:11:47.654Z,98726.92
2023-06-13T05:14:42.130Z,98730.83
2023-06-13T05:17:38.605Z,98729.31
2023-06-13T05:20:27.441Z,98729.75
2023-06-13T05:23:22.064Z,98728.80
2023-06-13T05:26:16.268Z,98725.26
2023-06-13T05:29:10.938Z,98721.70
2023-06-13T05:32:05.374Z,98723.85
2023-06-13T05:34:59.324Z,98724.23
2023-06-13T05:37:54.691Z,98725.92
2023-06-13T05:40:48.760Z,98722.88
2023-06-13T05:44:05.188Z,98718.84
2023-06-13T05:47:19.113Z,98712.11
2023-06-13T05:52:29.541Z,98715.18
2023-06-13T05:55:23.776Z,98716.73
2023-06-13T05:58:17.540Z,98718.91
2023-06-13T06:01:12.238Z,98721.05
2023-06-13T06:04:06.444Z,98716.98
2023-06-13T06:07:01.124Z,98718.20
2023-06-13T06:09:54.927Z,98720.47
2023-06-13T06:12:49.168Z,98721.46
2023-06-13T06:15:43.099Z,98720.39
2023-06-13T06:18:37.458Z,98726.11
2023-06-13T06:21:31.894Z,98721.54
2023-06-13T06:24:26.097Z,98720.38
2023-06-13T06:27:20.436Z,98720.25
2023-06-13T06:30:17.316Z,98716.90
2023-06-13T06:33:11.811Z,98717.35
2023-06-13T06:36:06.222Z,98717.05
2023-06-13T06:39:00.793Z,98722.45
2023-06-13T06:41:54.973Z,98723.85
2023-06-13T06:44:50.017Z,98720.91
2023-06-13T06:47:34.369Z,98722.05
2023-06-13T06:50:28.415Z,98720.19
2023-06-13T06:53:22.407Z,98716.03
2023-06-13T06:56:16.579Z,98711.77
2023-06-13T06:59:12.221Z,98712.11
2023-06-13T07:02:06.809Z,98710.52
2023-06-13T07:05:21.592Z,98710.40
2023-06-13T07:08:15.573Z,98709.31
2023-06-13T07:11:09.656Z,98714.47
2023-06-13T07:14:03.536Z,98711.95
2023-06-13T07:16:57.872Z,98709.45
2023-06-13T07:20:14.262Z,98715.36
2023-06-13T07:23:09.402Z,98708.83
2023-06-13T07:26:03.920Z,98707.45
2023-06-13T07:28:58.028Z,98702.59
2023-06-13T07:31:53.416Z,98706.41
2023-06-13T07:35:04.115Z,98700.91
2023-06-13T07:38:02.016Z,98701.61
2023-06-13T07:40:56.736Z,98697.13
2023-06-13T07:43:51.276Z,98694.42
2023-06-13T07:46:45.684Z,98696.25
2023-06-13T07:49:45.383Z,98686.41
2023-06-13T07:52:40.584Z,98689.70
2023-06-13T07:55:34.777Z,98690.59
2023-06-13T07:58:29.196Z,98697.81
2023-06-13T08:01:24.014Z,98699.55
2023-06-13T08:04:18.348Z,98693.67
2023-06-13T08:07:13.012Z,98691.00
2023-06-13T08:10:07.969Z,98693.10
2023-06-13T08:13:02.120Z,98694.84
2023-06-13T08:15:56.150Z,98690.23
2023-06-13T08:18:53.177Z,98692.86
2023-06-13T08:21:48.329Z,98692.08
2023-06-13T08:24:42.573Z,98696.29
2023-06-13T08:27:38.259Z,98691.69
2023-06-13T08:30:32.755Z,98689.23
2023-06-13T08:33:27.354Z,98693.14
2023-06-13T08:36:31.832Z,98687.29
2023-06-13T08:39:26.433Z,98683.11
2023-06-13T08:42:23.952Z,98685.20
2023-06-13T08:45:19.246Z,98684.20
2023-06-13T08:48:14.752Z,98682.23
2023-06-13T08:51:15.172Z,98681.54
2023-06-13T08:54:11.814Z,98680.18
2023-06-13T08:57:09.379Z,98682.91
2023-06-13T09:00:05.257Z,98679.73
2023-06-13T09:03:02.033Z,98680.92
2023-06-13T09:05:56.759Z,98687.23
2023-06-13T09:08:52.264Z,98688.46
2023-06-13T09:11:49.218Z,98684.68
2023-06-13T09:14:46.224Z,98686.78
2023-06-13T09:17:40.761Z,98683.02
2023-06-13T09:20:28.286Z,98681.09
2023-06-13T09:23:23.050Z,98682.20
2023-06-13T09:26:17.921Z,98686.13
2023-06-13T09:29:26.641Z,98677.16
2023-06-13T09:32:27.263Z,98681.42
2023-06-13T09:38:38.343Z,98665.11
2023-06-13T09:41:33.162Z,98662.54
2023-06-13T09:44:28.271Z,98664.39
2023-06-13T09:47:28.741Z,98659.48
2023-06-13T09:50:23.911Z,98660.78
2023-06-13T09:53:18.253Z,98656.88
2023-06-13T09:56:13.855Z,98654.46
2023-06-13T09:59:08.300Z,98648.56
2023-06-13T10:02:03.602Z,98652.47
2023-06-13T10:04:58.868Z,98647.52
2023-06-13T10:07:53.615Z,98642.85
2023-06-13T10:10:47.669Z,98646.28
2023-06-13T10:13:52.980Z,98645.58
2023-06-13T10:17:07.612Z,98638.23
2023-06-13T10:20:07.686Z,98632.48
2023-06-13T10:23:03.903Z,98638.92
2023-06-13T10:26:05.783Z,98631.52
2023-06-13T10:29:46.066Z,98628.27
2023-06-13T10:33:38.244Z,98625.23
2023-06-13T10:37:19.495Z,98619.39
2023-06-13T10:40:40.871Z,98618.57
2023-06-13T10:43:37.443Z,98618.51
2023-06-13T10:46:33.926Z,98618.49
2023-06-13T10:49:52.021Z,98616.48
2023-06-13T10:53:01.035Z,98617.69
2023-06-13T10:56:07.904Z,98617.02
2023-06-13T11:03:24.070Z,98611.09
2023-06-13T11:11:00.235Z,98620.41
2023-06-13T11:14:08.962Z,98620.25
2023-06-13T11:17:27.279Z,98618.98
2023-06-13T11:20:45.267Z,98616.17
2023-06-13T11:24:04.692Z,98611.95
2023-06-13T11:27:09.660Z,98609.38
2023-06-13T11:30:40.593Z,98611.78
2023-06-13T11:33:32.130Z,98606.23
2023-06-13T11:36:35.786Z,98598.19
2023-06-13T11:43:22.140Z,98600.91
2023-06-13T11:46:30.968Z,98600.27
2023-06-13T11:49:40.538Z,98598.31
2023-06-13T11:52:35.022Z,98594.49
2023-06-13T11:55:32.561Z,98590.25
2023-06-13T11:58:38.952Z,98585.23
2023-06-13T12:01:33.283Z,98578.13
2023-06-13T12:04:28.512Z,98577.50
2023-06-13T12:07:23.106Z,98577.45
2023-06-13T12:10:18.477Z,98574.31
2023-06-13T12:13:16.676Z,98572.05
2023-06-13T12:16:10.993Z,98576.23
2023-06-13T12:19:07.312Z,98571.60
2023-06-13T12:22:07.115Z,98564.73
2023-06-13T12:25:03.779Z,98571.75
2023-06-13T12:27:58.538Z,98567.02
2023-06-13T12:30:56.259Z,98567.52
2023-06-13T12:33:48.930Z,98564.37
2023-06-13T12:36:45.927Z,98561.95
2023-06-13T12:40:00.560Z,98555.98
2023-06-13T12:42:57.191Z,98557.78
2023-06-13T12:45:51.219Z,98568.86
2023-06-13T12:48:47.517Z,98566.33
2023-06-13T12:51:46.348Z,98563.75
2023-06-13T12:54:40.946Z,98559.88
2023-06-13T12:57:52.611Z,98559.94
2023-06-13T13:00:54.480Z,98550.90
2023-06-13T13:03:48.865Z,98546.19
2023-06-13T13:07:24.575Z,98533.44
2023-06-13T13:10:19.254Z,98537.70
2023-06-13T13:13:13.867Z,98536.27
2023-06-13T13:16:07.908Z,98535.29
2023-06-13T13:19:02.259Z,98533.91
2023-06-13T13:21:58.220Z,98533.30
2023-06-13T13:24:52.213Z,98536.92
2023-06-13T13:27:48.172Z,98536.52
2023-06-13T13:30:56.274Z,98539.65
2023-06-13T13:37:08.256Z,98538.62
2023-06-13T13:40:02.222Z,98536.52
2023-06-13T13:42:58.095Z,98532.98
2023-06-13T13:45:52.332Z,98529.63
2023-06-13T13:48:46.815Z,98532.84
2023-06-13T13:51:41.213Z,98533.81
2023-06-13T13:54:35.703Z,98532.09
2023-06-13T13:57:29.747Z,98531.40
2023-06-13T14:00:27.331Z,98530.30
2023-06-13T14:03:21.743Z,98532.08
2023-06-13T14:06:16.606Z,98530.23
2023-06-13T14:09:14.151Z,98528.37
2023-06-13T14:12:11.709Z,98527.41
2023-06-13T14:15:06.477Z,98525.25
2023-06-13T14:18:01.338Z,98528.98
2023-06-13T14:20:55.964Z,98531.95
2023-06-13T14:23:49.797Z,98538.08
2023-06-13T14:26:44.074Z,98541.42
2023-06-13T14:29:38.350Z,98545.58
2023-06-13T14:32:32.516Z,98545.00
2023-06-13T14:35:26.927Z,98546.02
2023-06-13T14:38:21.413Z,98543.74
2023-06-13T14:41:16.564Z,98547.10
2023-06-13T14:44:10.812Z,98544.95
2023-06-13T14:47:05.455Z,98543.61
2023-06-13T14:49:59.503Z,98549.54
2023-06-13T14:52:53.383Z,98550.44
2023-06-13T14:55:48.012Z,98555.59
2023-06-13T14:58:42.334Z,98552.17
2023-06-13T15:01:37.482Z,98548.63
2023-06-13T15:04:31.528Z,98551.69
2023-06-13T15:07:25.589Z,98548.85
2023-06-13T15:10:20.780Z,98546.54
2023-06-13T15:13:17.151Z,98548.81
2023-06-13T15:16:13.053Z,98545.63
2023-06-13T15:19:07.493Z,98547.83
2023-06-13T15:22:04.614Z,98551.66
2023-06-13T15:24:58.912Z,98555.20
2023-06-13T15:27:53.123Z,98552.48
2023-06-13T15:30:47.155Z,98550.81
2023-06-13T15:33:41.552Z,98544.17
2023-06-13T15:36:36.086Z,98542.42
2023-06-13T15:39:30.635Z,98544.05
2023-06-13T15:42:24.667Z,98542.70
2023-06-13T15:45:19.096Z,98543.30
2023-06-13T15:48:13.056Z,98538.69
2023-06-13T15:51:07.247Z,98537.23
2023-06-13T15:54:01.510Z,98537.27
2023-06-13T15:56:56.601Z,98538.58
2023-06-13T15:59:50.691Z,98544.39
2023-06-13T16:02:46.647Z,98544.02
2023-06-13T16:05:40.952Z,98552.39
2023-06-13T16:08:35.292Z,98555.73
2023-06-13T16:11:31.168Z,98559.08
2023-06-13T16:14:25.192Z,98558.85
2023-06-13T16:17:20.133Z,98565.46
2023-06-13T16:20:14.761Z,98560.77
2023-06-13T16:23:09.206Z,98563.79
2023-06-13T16:26:03.466Z,98562.19
2023-06-13T16:28:58.365Z,98559.18
2023-06-13T16:31:53.140Z,98559.04
2023-06-13T16:34:47.836Z,98566.41
2023-06-13T16:37:42.585Z,98567.67
2023-06-13T16:40:37.442Z,98560.10
2023-06-13T16:43:58.596Z,98563.98
2023-06-13T16:47:18.031Z,98567.77
2023-06-13T16:50:09.511Z,98566.23
2023-06-13T16:53:04.253Z,98567.15
2023-06-13T16:55:58.831Z,98567.39
2023-06-13T16:58:53.228Z,98567.34
2023-06-13T17:01:47.601Z,98565.86
2023-06-13T17:04:42.302Z,98565.29
2023-06-13T17:07:36.590Z,98567.46
2023-06-13T17:10:30.773Z,98566.83
2023-06-13T17:13:25.873Z,98567.96
2023-06-13T17:16:20.214Z,98573.59
2023-06-13T17:19:17.470Z,98574.58
2023-06-13T17:22:11.992Z,98572.25
2023-06-13T17:25:07.730Z,98573.48
2023-06-13T17:28:55.144Z,98572.88
2023-06-13T17:31:49.766Z,98579.69
2023-06-13T17:34:44.956Z,98576.55
2023-06-13T17:37:39.953Z,98578.38
2023-06-13T17:40:35.084Z,98575.77
2023-06-13T17:43:29.386Z,98573.77
2023-06-13T17:46:24.930Z,98575.02
2023-06-13T17:49:19.369Z,98579.69
2023-06-13T17:51:56.545Z,98580.09
2023-06-13T17:54:51.457Z,98584.63
2023-06-13T17:57:46.967Z,98586.20
2023-06-13T18:00:41.644Z,98585.56
2023-06-13T18:03:39.361Z,98590.99
2023-06-13T18:06:33.917Z,98593.02
2023-06-13T18:09:28.560Z,98593.04
2023-06-13T18:12:22.900Z,98595.19
2023-06-13T18:15:19.685Z,98593.75
2023-06-13T18:18:14.434Z,98597.92
2023-06-13T18:21:09.166Z,98600.34
2023-06-13T18:24:03.708Z,98602.22
2023-06-13T18:26:58.927Z,98602.73
2023-06-13T18:29:53.976Z,98600.08
2023-06-13T18:32:48.903Z,98600.28
2023-06-13T18:35:43.823Z,98597.11
2023-06-13T18:38:40.988Z,98601.71
2023-06-13T18:41:35.590Z,98601.30
2023-06-13T18:44:31.331Z,98601.89
2023-06-13T18:47:26.470Z,98601.48
2023-06-13T18:50:45.643Z,98606.77
2023-06-13T18:53:33.972Z,98614.52
2023-06-13T18:56:40.654Z,98618.85
2023-06-13T18:59:37.421Z,98618.94
2023-06-13T19:02:35.917Z,98621.38
2023-06-13T19:05:28.377Z,98621.83
2023-06-13T19:08:23.675Z,98624.80
2023-06-13T19:11:16.341Z,98627.89
2023-06-13T19:14:12.935Z,98632.23
2023-06-13T19:17:08.742Z,98634.50
2023-06-13T19:20:08.135Z,98631.90
2023-06-13T19:23:10.157Z,98636.70
2023-06-13T19:26:28.603Z,98637.45
2023-06-13T19:29:46.796Z,98633.48
2023-06-13T19:34:24.549Z,98638.00
2023-06-13T19:37:18.707Z,98640.98
2023-06-13T19:40:17.080Z,98642.69
2023-06-13T19:43:11.842Z,98648.33
2023-06-13T19:46:07.389Z,98648.67
2023-06-13T19:49:02.271Z,98651.65
2023-06-13T19:51:59.380Z,98648.83
2023-06-13T19:54:54.384Z,98649.31
2023-06-13T19:57:55.754Z,98650.04
2023-06-13T20:00:51.083Z,98648.20
2023-06-13T20:03:47.139Z,98649.52
2023-06-13T20:06:42.484Z,98653.68
2023-06-13T20:09:37.629Z,98656.09
2023-06-13T20:12:32.541Z,98652.52
2023-06-13T20:15:29.582Z,98658.05
2023-06-13T20:18:24.427Z,98657.48
2023-06-13T20:21:21.479Z,98656.13
2023-06-13T20:24:16.541Z,98656.45
2023-06-13T20:27:11.706Z,98654.54
2023-06-13T20:30:09.465Z,98649.56
2023-06-13T20:33:04.722Z,98650.02
2023-06-13T20:36:00.959Z,98651.42
2023-06-13T20:38:56.191Z,98645.45
2023-06-13T20:41:55.060Z,98644.21
2023-06-13T20:44:59.781Z,98647.83
2023-06-13T20:47:57.643Z,98648.31
2023-06-13T20:50:52.594Z,98649.49
2023-06-13T20:53:47.005Z,98652.58
2023-06-13T20:56:41.881Z,98656.98
2023-06-13T20:59:36.400Z,98657.70
2023-06-13T21:02:31.293Z,98661.06
2023-06-13T21:05:27.186Z,98663.41
2023-06-13T21:08:22.063Z,98659.91
2023-06-13T21:11:16.214Z,98658.08
2023-06-13T21:14:10.527Z,98652.31
2023-06-13T21:17:04.734Z,98653.20
2023-06-13T21:19:59.966Z,98657.22
2023-06-13T21:22:55.649Z,98656.09
2023-06-13T21:25:50.111Z,98660.16
2023-06-13T21:28:45.185Z,98663.28
2023-06-13T21:31:28.731Z,98663.27
2023-06-13T21:34:22.533Z,98662.50
2023-06-13T21:37:16.968Z,98667.66
2023-06-13T21:40:14.272Z,98666.71
2023-06-13T21:43:09.751Z,98665.87
2023-06-13T21:46:03.981Z,98670.10
2023-06-13T21:48:58.627Z,98669.56
2023-06-13T21:51:52.840Z,98672.82
2023-06-13T21:54:47.623Z,98669.46
2023-06-13T21:57:42.763Z,98674.09
2023-06-13T22:00:38.329Z,98673.21
2023-06-13T22:03:32.384Z,98673.08
2023-06-13T22:06:28.668Z,98674.70
2023-06-13T22:09:22.612Z,98675.77
2023-06-13T22:12:16.666Z,98672.58
2023-06-13T22:15:12.655Z,98670.29
2023-06-13T22:18:07.556Z,98671.48
2023-06-13T22:21:01.935Z,98671.85
2023-06-13T22:23:55.967Z,98673.72
2023-06-13T22:26:50.006Z,98673.55
2023-06-13T22:29:46.892Z,98670.84
2023-06-13T22:32:41.053Z,98669.45
2023-06-13T22:35:35.264Z,98667.11
2023-06-13T22:38:29.052Z,98668.33
2023-06-13T22:41:23.334Z,98667.05
2023-06-13T22:44:17.093Z,98667.85
2023-06-13T22:47:14.026Z,98662.83
2023-06-13T22:50:10.234Z,98664.54
2023-06-13T22:56:32.208Z,98657.67
2023-06-13T22:59:26.527Z,98659.73
2023-06-13T23:02:21.216Z,98661.88
2023-06-13T23:05:15.204Z,98662.55
2023-06-13T23:08:09.577Z,98662.72
2023-06-13T23:11:03.420Z,98663.34
2023-06-13T23:13:57.719Z,98663.63
2023-06-13T23:16:51.892Z,98661.67
2023-06-13T23:19:54.789Z,98661.32
2023-06-13T23:22:49.828Z,98658.64
2023-06-13T23:25:44.519Z,98657.90
2023-06-13T23:28:38.986Z,98649.88
2023-06-13T23:31:38.872Z,98653.11
2023-06-13T23:34:33.099Z,98651.58
2023-06-13T23:37:28.280Z,98653.92
2023-06-13T23:40:23.179Z,98654.91
2023-06-13T23:43:19.165Z,98652.65
2023-06-13T23:46:13.205Z,98658.20
2023-06-13T23:49:07.580Z,98653.94
2023-06-13T23:52:01.698Z,98648.17
2023-06-13T23:54:55.847Z,98646.63
2023-06-13T23:57:49.952Z,98647.36
